createdAt,value
2019-03-19T00:03:00.147Z,5.70
2019-03-19T00:08:02.469Z,5.28
2019-03-19T00:13:04.638Z,5.67
2019-03-19T00:18:06.729Z,5.58
2019-03-19T00:23:08.956Z,5.72
2019-03-19T00:28:11.049Z,5.60
2019-03-19T00:33:13.119Z,5.40
2019-03-19T00:38:15.147Z,5.78
2019-03-19T00:43:17.249Z,6.33
2019-03-19T00:48:19.264Z,5.37
2019-03-19T00:53:21.598Z,5.53
2019-03-19T00:58:23.706Z,5.85
2019-03-19T01:03:25.788Z,6.25
2019-03-19T01:08:27.832Z,6.87
2019-03-19T01:13:29.985Z,6.92
2019-03-19T01:18:32.035Z,6.85
2019-03-19T01:23:34.147Z,6.58
2019-03-19T01:28:36.231Z,6.42
2019-03-19T01:33:38.332Z,5.70
2019-03-19T01:38:40.475Z,6.60
2019-03-19T01:43:42.543Z,6.40
2019-03-19T01:48:44.595Z,7.10
2019-03-19T01:53:46.730Z,6.70
2019-03-19T01:58:48.764Z,7.25
2019-03-19T02:03:50.830Z,7.67
2019-03-19T02:08:53.009Z,7.83
2019-03-19T02:13:55.073Z,8.13
2019-03-19T02:18:57.280Z,8.65
2019-03-19T02:23:59.328Z,8.70
2019-03-19T02:29:01.432Z,8.00
2019-03-19T02:34:03.488Z,8.98
2019-03-19T02:39:07.687Z,8.03
2019-03-19T02:44:09.742Z,7.83
2019-03-19T02:49:11.964Z,8.23
2019-03-19T02:54:14.053Z,8.43
2019-03-19T02:59:16.089Z,8.30
2019-03-19T03:04:18.202Z,7.62
2019-03-19T03:09:20.540Z,7.30
2019-03-19T03:14:22.975Z,7.70
2019-03-19T03:19:25.133Z,8.05
2019-03-19T03:24:27.240Z,7.75
2019-03-19T03:29:30.466Z,7.80
2019-03-19T03:34:32.603Z,8.58
2019-03-19T03:39:34.643Z,8.28
2019-03-19T03:44:36.926Z,8.45
2019-03-19T03:49:39.016Z,8.58
2019-03-19T03:54:41.099Z,8.30
2019-03-19T03:59:43.169Z,7.70
2019-03-19T04:04:45.293Z,9.63
2019-03-19T04:09:47.342Z,8.98
2019-03-19T04:14:49.741Z,9.93
2019-03-19T04:19:51.839Z,10.65
2019-03-19T04:24:53.903Z,10.23
2019-03-19T04:29:56.008Z,11.03
2019-03-19T04:34:58.033Z,10.32
2019-03-19T04:40:00.409Z,11.15
2019-03-19T04:45:03.362Z,10.65
2019-03-19T04:50:06.720Z,11.57
2019-03-19T04:55:09.523Z,12.00
2019-03-19T05:00:11.824Z,12.68
2019-03-19T05:05:13.936Z,12.03
2019-03-19T05:10:16.059Z,12.63
2019-03-19T05:15:18.334Z,11.48
2019-03-19T05:20:20.463Z,11.78
2019-03-19T05:25:22.549Z,11.53
2019-03-19T05:30:25.062Z,12.30
2019-03-19T05:35:27.677Z,12.70
2019-03-19T05:40:29.709Z,11.65
2019-03-19T05:45:31.895Z,12.00
2019-03-19T05:50:34.151Z,12.88
2019-03-19T05:55:36.571Z,12.63
2019-03-19T06:00:38.651Z,12.55
2019-03-19T06:05:40.788Z,12.60
2019-03-19T06:10:43.054Z,12.25
2019-03-19T06:15:45.206Z,11.85
2019-03-19T06:20:47.311Z,12.10
2019-03-19T06:25:50.043Z,12.70
2019-03-19T06:30:52.159Z,12.35
2019-03-19T06:35:54.366Z,12.15
2019-03-19T06:40:56.418Z,12.55
2019-03-19T06:46:00.174Z,13.08
2019-03-19T06:51:02.759Z,13.72
2019-03-19T06:56:04.782Z,12.90
2019-03-19T07:01:07.234Z,12.90
2019-03-19T07:06:09.291Z,13.18
2019-03-19T07:11:11.852Z,13.20
2019-03-19T07:16:15.503Z,13.13
2019-03-19T07:21:17.523Z,13.80
2019-03-19T07:26:19.866Z,13.62
2019-03-19T07:31:30.493Z,13.90
2019-03-19T07:36:26.421Z,14.05
2019-03-19T07:41:28.714Z,13.72
2019-03-19T07:46:31.424Z,11.83
2019-03-19T07:51:33.464Z,12.28
2019-03-19T07:56:35.771Z,11.57
2019-03-19T08:01:38.476Z,11.03
2019-03-19T08:06:40.666Z,12.43
2019-03-19T08:11:42.854Z,12.75
2019-03-19T08:16:45.084Z,13.28
2019-03-19T08:21:47.157Z,12.13
2019-03-19T08:26:49.685Z,11.78
2019-03-19T08:31:52.620Z,12.47
2019-03-19T08:36:54.798Z,11.88
2019-03-19T08:41:57.230Z,11.85
2019-03-19T08:47:00.581Z,10.80
2019-03-19T08:52:02.679Z,11.15
2019-03-19T08:57:04.716Z,10.65
2019-03-19T09:02:07.085Z,12.10
2019-03-19T09:07:09.117Z,11.33
2019-03-19T09:12:11.206Z,10.63
2019-03-19T09:17:13.326Z,10.90
2019-03-19T09:22:15.734Z,9.13
2019-03-19T09:27:18.155Z,8.13
2019-03-19T09:32:20.344Z,7.55
2019-03-19T09:37:22.386Z,6.40
2019-03-19T09:42:24.422Z,7.97
2019-03-19T09:47:26.500Z,7.75
2019-03-19T09:52:28.843Z,6.70
2019-03-19T09:57:30.914Z,7.80
2019-03-19T10:02:32.943Z,6.67
2019-03-19T10:07:34.931Z,5.65
2019-03-19T10:12:37.446Z,6.45
2019-03-19T10:17:39.507Z,5.65
2019-03-19T10:22:49.837Z,3.30
2019-03-19T10:27:51.906Z,3.33
2019-03-19T10:32:54.010Z,3.08
2019-03-19T10:37:56.030Z,2.77
2019-03-19T10:42:58.076Z,4.17
2019-03-19T10:48:00.134Z,3.42
2019-03-19T10:53:02.194Z,2.95
2019-03-19T10:58:11.035Z,3.60
2019-03-19T11:03:08.457Z,3.10
2019-03-19T11:08:10.719Z,3.55
2019-03-19T11:13:12.765Z,3.65
2019-03-19T11:18:15.241Z,3.58
2019-03-19T11:23:17.290Z,3.90
2019-03-19T11:28:19.344Z,3.35
2019-03-19T11:33:21.363Z,3.00
2019-03-19T11:38:23.375Z,3.25
2019-03-19T11:43:25.477Z,3.85
2019-03-19T11:48:27.797Z,3.45
2019-03-19T11:53:29.827Z,2.72
2019-03-19T11:58:31.868Z,3.27
2019-03-19T12:03:33.883Z,3.72
2019-03-19T12:08:36.402Z,3.87
2019-03-19T12:13:38.452Z,3.70
2019-03-19T12:18:40.641Z,3.35
2019-03-19T12:23:42.718Z,3.58
2019-03-19T12:28:47.129Z,3.05
2019-03-19T12:33:49.186Z,3.50
2019-03-19T12:38:51.291Z,3.37
2019-03-19T12:43:53.320Z,3.05
2019-03-19T12:48:55.957Z,2.95
2019-03-19T12:53:57.986Z,3.15
2019-03-19T12:59:00.056Z,2.90
2019-03-19T13:04:02.137Z,2.80
2019-03-19T13:09:06.297Z,3.15
2019-03-19T13:14:08.831Z,2.70
2019-03-19T13:19:11.036Z,2.83
2019-03-19T13:24:13.130Z,2.67
2019-03-19T13:29:15.218Z,2.55
2019-03-19T13:34:17.270Z,2.70
2019-03-19T13:39:19.690Z,2.77
2019-03-19T13:44:21.719Z,2.65
2019-03-19T13:49:24.039Z,2.75
2019-03-19T13:54:26.206Z,2.42
2019-03-19T13:59:28.219Z,2.20
2019-03-19T14:04:30.273Z,2.87
2019-03-19T14:09:32.394Z,2.58
2019-03-19T14:14:34.607Z,2.37
2019-03-19T14:19:36.666Z,3.08
2019-03-19T14:24:39.021Z,2.25
2019-03-19T14:29:41.198Z,2.40
2019-03-19T14:34:43.276Z,2.58
2019-03-19T14:39:45.344Z,3.00
2019-03-19T14:44:47.373Z,2.92
2019-03-19T14:49:50.066Z,2.27
2019-03-19T14:54:52.167Z,2.72
2019-03-19T14:59:54.554Z,2.60
2019-03-19T15:04:56.898Z,3.00
2019-03-19T15:09:58.949Z,2.02
2019-03-19T15:15:01.403Z,2.40
2019-03-19T15:20:06.650Z,2.00
2019-03-19T15:25:09.540Z,2.08
2019-03-19T15:30:12.152Z,2.17
2019-03-19T15:35:14.314Z,2.02
2019-03-19T15:40:16.452Z,2.40
2019-03-19T15:45:18.641Z,2.30
2019-03-19T15:50:20.825Z,2.40
2019-03-19T15:55:23.793Z,3.00
2019-03-19T16:00:26.085Z,2.40
2019-03-19T16:05:28.107Z,2.77
2019-03-19T16:10:30.136Z,3.45
2019-03-19T16:15:32.541Z,2.75
2019-03-19T16:20:34.563Z,2.33
2019-03-19T16:25:36.653Z,2.52
2019-03-19T16:30:39.042Z,2.75
2019-03-19T16:35:41.088Z,2.70
2019-03-19T16:40:43.135Z,2.62
2019-03-19T16:45:45.165Z,2.27
2019-03-19T16:50:47.200Z,2.60
2019-03-19T16:55:49.363Z,2.40
2019-03-19T17:00:51.418Z,2.00
2019-03-19T17:05:53.602Z,2.27
2019-03-19T17:10:55.690Z,2.80
2019-03-19T17:15:57.844Z,2.05
2019-03-19T17:21:00.396Z,2.40
2019-03-19T17:26:02.474Z,3.05
2019-03-19T17:31:04.568Z,2.40
2019-03-19T17:36:06.620Z,3.22
2019-03-19T17:41:08.784Z,3.27
2019-03-19T17:46:11.097Z,2.92
2019-03-19T17:51:13.239Z,4.37
2019-03-19T17:56:15.413Z,3.80
2019-03-19T18:01:17.917Z,3.65
2019-03-19T18:06:20.052Z,3.92
2019-03-19T18:11:22.300Z,3.72
2019-03-19T18:16:24.550Z,4.28
2019-03-19T18:21:26.581Z,3.83
2019-03-19T18:26:28.726Z,4.92
2019-03-19T18:31:30.797Z,4.37
2019-03-19T18:36:32.869Z,3.98
2019-03-19T18:41:34.911Z,5.20
2019-03-19T18:46:37.009Z,4.70
2019-03-19T18:51:39.059Z,4.33
2019-03-19T18:56:41.089Z,3.90
2019-03-19T19:01:43.135Z,4.62
2019-03-19T19:06:45.488Z,4.65
2019-03-19T19:11:47.578Z,5.70
2019-03-19T19:16:49.646Z,5.28
2019-03-19T19:21:51.748Z,4.92
2019-03-19T19:26:53.823Z,4.78
2019-03-19T19:31:55.969Z,5.53
2019-03-19T19:36:58.193Z,5.95
2019-03-19T19:42:00.211Z,6.35
2019-03-19T19:47:02.332Z,5.67
2019-03-19T19:52:04.481Z,5.90
2019-03-19T19:57:06.873Z,5.83
2019-03-19T20:02:08.924Z,5.72
2019-03-19T20:07:11.917Z,5.40
2019-03-19T20:12:13.954Z,5.53
2019-03-19T20:17:16.012Z,5.05
2019-03-19T20:22:18.019Z,5.97
2019-03-19T20:27:20.102Z,6.33
2019-03-19T20:32:22.344Z,6.37
2019-03-19T20:37:24.773Z,8.55
2019-03-19T20:42:27.072Z,8.18
2019-03-19T20:47:29.296Z,7.75
2019-03-19T20:52:31.441Z,6.85
2019-03-19T20:57:35.146Z,6.90
2019-03-19T21:02:39.683Z,4.83
2019-03-19T21:07:41.781Z,4.80
2019-03-19T21:12:44.290Z,4.83
2019-03-19T21:17:47.088Z,4.90
2019-03-19T21:22:49.507Z,4.62
2019-03-19T21:27:51.739Z,4.58
2019-03-19T21:32:54.146Z,4.30
2019-03-19T21:37:56.271Z,3.65
2019-03-19T21:42:58.482Z,4.35
2019-03-19T21:48:00.816Z,4.17
2019-03-19T21:53:06.254Z,3.87
2019-03-19T21:58:08.348Z,4.80
2019-03-19T22:03:10.491Z,6.47
2019-03-19T22:08:15.431Z,5.30
2019-03-19T22:13:17.452Z,5.00
2019-03-19T22:18:19.560Z,5.28
2019-03-19T22:23:21.667Z,6.08
2019-03-19T22:28:23.774Z,5.95
2019-03-19T22:33:26.118Z,6.65
2019-03-19T22:38:28.187Z,5.87
2019-03-19T22:43:32.122Z,6.03
2019-03-19T22:48:34.157Z,7.03
2019-03-19T22:53:36.318Z,7.30
2019-03-19T22:58:38.411Z,7.28
2019-03-19T23:03:40.811Z,7.72
2019-03-19T23:08:44.768Z,7.92
2019-03-19T23:13:47.061Z,7.83
2019-03-19T23:18:49.228Z,8.40
2019-03-19T23:23:51.934Z,7.97
2019-03-19T23:28:54.196Z,7.53
2019-03-19T23:33:56.277Z,8.40
2019-03-19T23:38:58.539Z,8.05
2019-03-19T23:44:00.855Z,7.92
2019-03-19T23:49:02.928Z,8.43
2019-03-19T23:54:05.004Z,8.60
2019-03-19T23:59:07.072Z,8.45
